TAF and METAR

Could not understand the following METAR

FYOW 011700Z AUTO 21001KT //// // ////// 24/12 Q1018
No TAF available for Otjiwarongo Airport
Otjiwarongo Airport in Namibia at 1481m

Latest 5 airports